createdAt,value
2019-01-15T00:00:09.280Z,962.1
2019-01-15T00:00:49.801Z,962.1
2019-01-15T00:01:30.329Z,962.11
2019-01-15T00:02:10.858Z,962.1
2019-01-15T00:02:51.383Z,962.1
2019-01-15T00:03:31.909Z,962.12
2019-01-15T00:04:12.426Z,962.11
2019-01-15T00:04:52.955Z,962.13
2019-01-15T00:05:33.491Z,962.13
2019-01-15T00:06:14.034Z,962.15
2019-01-15T00:06:54.555Z,962.11
2019-01-15T00:07:35.085Z,962.17
2019-01-15T00:08:15.606Z,962.21
2019-01-15T00:08:56.141Z,962.2
2019-01-15T00:09:36.670Z,962.25
2019-01-15T00:10:17.211Z,962.22
2019-01-15T00:10:57.732Z,962.21
2019-01-15T00:11:38.259Z,962.21
2019-01-15T00:12:18.794Z,962.23
2019-01-15T00:12:59.330Z,962.25
2019-01-15T00:13:39.860Z,962.21
2019-01-15T00:14:20.394Z,962.25
2019-01-15T00:15:00.921Z,962.25
2019-01-15T00:15:41.455Z,962.25
2019-01-15T00:16:21.982Z,962.24
2019-01-15T00:17:02.532Z,962.25
2019-01-15T00:17:43.081Z,962.25
2019-01-15T00:18:23.614Z,962.2
2019-01-15T00:19:04.156Z,962.25
2019-01-15T00:19:44.692Z,962.25
2019-01-15T00:20:25.220Z,962.25
2019-01-15T00:21:05.747Z,962.28
2019-01-15T00:21:46.279Z,962.23
2019-01-15T00:22:26.809Z,962.21
2019-01-15T00:23:07.335Z,962.19
2019-01-15T00:23:47.853Z,962.18
2019-01-15T00:24:28.386Z,962.19
2019-01-15T00:25:08.917Z,962.2
2019-01-15T00:25:49.459Z,962.18
2019-01-15T00:26:29.987Z,962.19
2019-01-15T00:27:10.516Z,962.22
2019-01-15T00:27:51.055Z,962.25
2019-01-15T00:28:31.577Z,962.23
2019-01-15T00:29:12.109Z,962.26
2019-01-15T00:29:52.639Z,962.21
2019-01-15T00:30:33.175Z,962.18
2019-01-15T00:31:13.698Z,962.25
2019-01-15T00:31:54.222Z,962.25
2019-01-15T00:32:34.750Z,962.24
2019-01-15T00:33:15.279Z,962.24
2019-01-15T00:33:55.802Z,962.28
2019-01-15T00:34:36.342Z,962.27
2019-01-15T00:35:23.836Z,962.24
2019-01-15T00:36:04.359Z,962.25
2019-01-15T00:36:44.881Z,962.29
2019-01-15T00:37:25.409Z,962.33
2019-01-15T00:38:05.945Z,962.3
2019-01-15T00:38:46.474Z,962.31
2019-01-15T00:39:27.004Z,962.3
2019-01-15T00:40:07.533Z,962.3
2019-01-15T00:40:48.076Z,962.29
2019-01-15T00:41:28.595Z,962.31
2019-01-15T00:42:15.165Z,962.28
2019-01-15T00:42:49.663Z,962.3
2019-01-15T00:43:30.190Z,962.33
2019-01-15T00:44:10.717Z,962.28
2019-01-15T00:44:51.247Z,962.35
2019-01-15T00:45:31.779Z,962.37
2019-01-15T00:46:12.309Z,962.38
2019-01-15T00:46:52.835Z,962.4
2019-01-15T00:47:33.364Z,962.41
2019-01-15T00:48:13.886Z,962.41
2019-01-15T00:48:54.429Z,962.42
2019-01-15T00:49:34.962Z,962.41
2019-01-15T00:50:15.484Z,962.44
2019-01-15T00:50:56.016Z,962.41
2019-01-15T00:51:36.551Z,962.41
2019-01-15T00:52:17.085Z,962.39
2019-01-15T00:52:57.624Z,962.39
2019-01-15T00:53:38.162Z,962.36
2019-01-15T00:54:18.697Z,962.38
2019-01-15T00:55:00.009Z,962.4
2019-01-15T00:55:40.542Z,962.39
2019-01-15T00:56:21.069Z,962.34
2019-01-15T00:57:01.600Z,962.33
2019-01-15T00:57:42.133Z,962.32
2019-01-15T00:58:22.672Z,962.35
2019-01-15T00:59:03.182Z,962.39
2019-01-15T00:59:43.725Z,962.32
2019-01-15T01:00:24.245Z,962.34
2019-01-15T01:01:04.803Z,962.31
2019-01-15T01:01:45.316Z,962.34
2019-01-15T01:02:25.855Z,962.37
2019-01-15T01:03:06.378Z,962.36
2019-01-15T01:03:46.923Z,962.37
2019-01-15T01:04:27.451Z,962.37
2019-01-15T01:05:07.988Z,962.38
2019-01-15T01:05:48.526Z,962.41
2019-01-15T01:06:29.065Z,962.38
2019-01-15T01:07:09.581Z,962.41
2019-01-15T01:07:50.097Z,962.45
2019-01-15T01:08:30.622Z,962.46
2019-01-15T01:09:11.169Z,962.44
2019-01-15T01:09:51.711Z,962.47
2019-01-15T01:10:32.240Z,962.44
2019-01-15T01:11:12.785Z,962.49
2019-01-15T01:11:53.313Z,962.53
2019-01-15T01:12:33.850Z,962.53
2019-01-15T01:13:14.368Z,962.57
2019-01-15T01:13:54.896Z,962.56
2019-01-15T01:14:35.431Z,962.58
2019-01-15T01:15:15.961Z,962.6
2019-01-15T01:15:56.484Z,962.63
2019-01-15T01:16:37.027Z,962.61
2019-01-15T01:17:17.553Z,962.67
2019-01-15T01:17:58.082Z,962.64
2019-01-15T01:18:38.629Z,962.64
2019-01-15T01:19:19.154Z,962.66
2019-01-15T01:19:59.685Z,962.7
2019-01-15T01:20:40.213Z,962.67
2019-01-15T01:21:20.746Z,962.68
2019-01-15T01:22:01.279Z,962.67
2019-01-15T01:22:41.802Z,962.63
2019-01-15T01:23:22.328Z,962.67
2019-01-15T01:26:51.419Z,962.69
2019-01-15T01:27:31.969Z,962.7
2019-01-15T01:28:12.494Z,962.7
2019-01-15T01:28:53.014Z,962.76
2019-01-15T01:29:33.535Z,962.8
2019-01-15T01:30:14.063Z,962.79
2019-01-15T01:30:54.584Z,962.82
2019-01-15T01:31:35.117Z,962.82
2019-01-15T01:32:15.659Z,962.81
2019-01-15T01:32:56.181Z,962.85
2019-01-15T01:33:36.710Z,962.86
2019-01-15T01:34:17.245Z,962.8
2019-01-15T01:34:57.773Z,962.82
2019-01-15T01:35:38.303Z,962.81
2019-01-15T01:36:18.840Z,962.86
2019-01-15T01:36:59.364Z,962.84
2019-01-15T01:37:39.911Z,962.87
2019-01-15T01:38:20.441Z,962.9
2019-01-15T01:39:00.973Z,962.9
2019-01-15T01:39:41.508Z,962.94
2019-01-15T01:40:22.039Z,962.96
2019-01-15T01:41:02.581Z,962.95
2019-01-15T01:41:43.097Z,962.86
2019-01-15T01:42:29.360Z,962.98
2019-01-15T01:43:04.176Z,962.93
2019-01-15T01:43:44.692Z,962.94
2019-01-15T01:44:25.217Z,962.99
2019-01-15T01:45:05.738Z,963.03
2019-01-15T01:45:46.271Z,963.03
2019-01-15T01:46:26.807Z,963.03
2019-01-15T01:47:07.335Z,963.06
2019-01-15T01:47:47.869Z,963.02
2019-01-15T01:48:28.391Z,963.03
2019-01-15T01:49:08.922Z,963.01
2019-01-15T01:49:49.449Z,963.05
2019-01-15T01:50:29.984Z,963.05
2019-01-15T01:51:10.528Z,963.04
2019-01-15T01:51:51.060Z,963.03
2019-01-15T01:52:31.596Z,963.01
2019-01-15T01:53:12.136Z,963
2019-01-15T01:53:52.670Z,963.03
2019-01-15T01:54:33.202Z,963.09
2019-01-15T01:55:14.228Z,963.04
2019-01-15T01:55:54.720Z,963.03
2019-01-15T01:56:35.262Z,963.08
2019-01-15T01:57:15.792Z,963.09
2019-01-15T01:57:56.322Z,963.06
2019-01-15T01:58:36.845Z,963.09
2019-01-15T01:59:17.379Z,963.07
2019-01-15T01:59:57.903Z,963.13
2019-01-15T02:00:38.421Z,963.15
2019-01-15T02:01:18.985Z,963.16
2019-01-15T02:01:59.496Z,963.17
2019-01-15T02:02:40.073Z,963.2
2019-01-15T02:03:20.564Z,963.2
2019-01-15T02:04:01.096Z,963.17
2019-01-15T02:04:41.619Z,963.15
2019-01-15T02:05:22.139Z,963.19
2019-01-15T02:06:02.664Z,963.13
2019-01-15T02:06:43.186Z,963.14
2019-01-15T02:07:23.714Z,963.19
2019-01-15T02:08:04.231Z,963.15
2019-01-15T02:08:44.754Z,963.23
2019-01-15T02:09:25.275Z,963.17
2019-01-15T02:10:05.800Z,963.16
2019-01-15T02:10:46.321Z,963.18
2019-01-15T02:11:26.839Z,963.17
2019-01-15T02:12:07.354Z,963.19
2019-01-15T02:12:47.876Z,963.2
2019-01-15T02:13:28.399Z,963.19
2019-01-15T02:14:08.927Z,963.17
2019-01-15T02:14:49.442Z,963.19
2019-01-15T02:15:29.961Z,963.25
2019-01-15T02:16:10.483Z,963.24
2019-01-15T02:16:51.007Z,963.26
2019-01-15T02:17:31.527Z,963.21
2019-01-15T02:18:12.049Z,963.26
2019-01-15T02:18:52.575Z,963.27
2019-01-15T02:19:33.099Z,963.32
2019-01-15T02:20:13.613Z,963.3
2019-01-15T02:20:54.127Z,963.33
2019-01-15T02:21:34.651Z,963.29
2019-01-15T02:22:15.173Z,963.33
2019-01-15T02:22:55.698Z,963.31
2019-01-15T02:23:36.221Z,963.32
2019-01-15T02:24:16.743Z,963.31
2019-01-15T02:24:57.280Z,963.33
2019-01-15T02:25:37.794Z,963.31
2019-01-15T02:26:18.316Z,963.35
2019-01-15T02:26:58.839Z,963.34
2019-01-15T02:27:39.358Z,963.39
2019-01-15T02:28:19.877Z,963.36
2019-01-15T02:29:00.394Z,963.43
2019-01-15T02:29:40.920Z,963.41
2019-01-15T02:30:21.436Z,963.41
2019-01-15T02:31:01.960Z,963.36
2019-01-15T02:31:42.480Z,963.4
2019-01-15T02:32:22.999Z,963.42
2019-01-15T02:33:03.618Z,963.42
2019-01-15T02:33:44.037Z,963.44
2019-01-15T02:34:24.558Z,963.45
2019-01-15T02:35:05.078Z,963.44
2019-01-15T02:35:45.597Z,963.36
2019-01-15T02:36:26.109Z,963.42
2019-01-15T02:37:06.617Z,963.44
2019-01-15T02:37:47.134Z,963.42
2019-01-15T02:38:27.653Z,963.45
2019-01-15T02:39:08.179Z,963.41
2019-01-15T02:39:48.696Z,963.42
2019-01-15T02:40:29.217Z,963.45
2019-01-15T02:41:09.736Z,963.43
2019-01-15T02:41:50.254Z,963.45
2019-01-15T02:42:30.780Z,963.43
2019-01-15T02:43:11.296Z,963.49
2019-01-15T02:43:51.819Z,963.44
2019-01-15T02:44:32.337Z,963.47
2019-01-15T02:45:12.854Z,963.49
2019-01-15T02:45:53.369Z,963.47
2019-01-15T02:46:33.886Z,963.46
2019-01-15T02:47:14.403Z,963.49
2019-01-15T02:47:54.922Z,963.46
2019-01-15T02:48:35.448Z,963.49
2019-01-15T02:49:15.972Z,963.48
2019-01-15T02:49:56.494Z,963.47
2019-01-15T02:50:37.021Z,963.49
2019-01-15T02:51:17.535Z,963.5
2019-01-15T02:51:58.058Z,963.49
2019-01-15T02:52:38.584Z,963.43
2019-01-15T02:53:19.101Z,963.47
2019-01-15T02:53:59.627Z,963.53
2019-01-15T02:54:40.145Z,963.55
2019-01-15T02:55:20.671Z,963.55
2019-01-15T02:56:01.194Z,963.53
2019-01-15T02:56:41.714Z,963.55
2019-01-15T02:57:22.245Z,963.55
2019-01-15T02:58:02.764Z,963.6
2019-01-15T02:58:43.284Z,963.57
2019-01-15T02:59:23.801Z,963.58
2019-01-15T03:00:04.320Z,963.6
2019-01-15T03:00:44.841Z,963.58
2019-01-15T03:01:25.355Z,963.58
2019-01-15T03:02:05.875Z,963.54
2019-01-15T03:02:46.408Z,963.51
2019-01-15T03:03:26.923Z,963.54
2019-01-15T03:04:07.440Z,963.58
2019-01-15T03:04:47.960Z,963.59
2019-01-15T03:05:28.480Z,963.61
2019-01-15T03:06:09.013Z,963.6
2019-01-15T03:06:49.535Z,963.57
2019-01-15T03:07:30.059Z,963.55
2019-01-15T03:08:10.576Z,963.44
2019-01-15T03:08:51.082Z,963.49
2019-01-15T03:09:31.601Z,963.5
2019-01-15T03:10:12.123Z,963.47
2019-01-15T03:10:52.648Z,963.48
2019-01-15T03:11:33.163Z,963.56
2019-01-15T03:12:13.679Z,963.55
2019-01-15T03:12:56.513Z,963.62
2019-01-15T03:13:34.716Z,963.6
2019-01-15T03:14:15.242Z,963.56
2019-01-15T03:14:55.764Z,963.62
2019-01-15T03:15:36.298Z,963.64
2019-01-15T03:16:16.820Z,963.66
2019-01-15T03:16:57.345Z,963.66
2019-01-15T03:17:37.865Z,963.65
2019-01-15T03:18:18.384Z,963.63
2019-01-15T03:18:58.910Z,963.62
2019-01-15T03:19:39.430Z,963.6
2019-01-15T03:20:19.949Z,963.58
2019-01-15T03:21:00.477Z,963.58
2019-01-15T03:21:40.990Z,963.57
2019-01-15T03:22:21.510Z,963.6
2019-01-15T03:23:02.029Z,963.64
2019-01-15T03:23:42.550Z,963.62
2019-01-15T03:24:23.075Z,963.65
2019-01-15T03:25:03.604Z,963.68
2019-01-15T03:25:44.133Z,963.67
2019-01-15T03:26:24.655Z,963.65
2019-01-15T03:27:05.186Z,963.7
2019-01-15T03:27:45.715Z,963.7
2019-01-15T03:28:26.232Z,963.64
2019-01-15T03:29:06.755Z,963.62
2019-01-15T03:29:47.312Z,963.62
2019-01-15T03:30:27.900Z,963.66
2019-01-15T03:31:08.429Z,963.67
2019-01-15T03:31:48.994Z,963.68
2019-01-15T03:32:29.471Z,963.62
2019-01-15T03:35:43.320Z,963.61
2019-01-15T03:36:23.836Z,963.53
2019-01-15T03:37:04.356Z,963.52
2019-01-15T03:37:44.883Z,963.47
2019-01-15T03:38:25.397Z,963.53
2019-01-15T03:39:05.918Z,963.5
2019-01-15T03:39:46.437Z,963.54
2019-01-15T03:40:26.954Z,963.56
2019-01-15T03:41:07.470Z,963.61
2019-01-15T03:41:48.003Z,963.58
2019-01-15T03:42:28.532Z,963.6
2019-01-15T03:43:09.057Z,963.55
2019-01-15T03:43:49.567Z,963.56
2019-01-15T03:44:30.095Z,963.51
2019-01-15T03:45:10.614Z,963.48
2019-01-15T03:45:55.813Z,963.56
2019-01-15T03:46:36.341Z,963.56
2019-01-15T03:47:16.863Z,963.55
2019-01-15T03:47:57.373Z,963.53
2019-01-15T03:48:37.899Z,963.57
2019-01-15T03:49:18.429Z,963.56
2019-01-15T03:49:58.948Z,963.54
2019-01-15T03:50:39.470Z,963.54
2019-01-15T03:51:19.993Z,963.54
2019-01-15T03:52:00.507Z,963.55
2019-01-15T03:52:41.029Z,963.53
2019-01-15T03:53:21.567Z,963.49
2019-01-15T03:54:02.072Z,963.54
2019-01-15T03:54:42.592Z,963.54
2019-01-15T03:55:23.128Z,963.52
2019-01-15T03:56:03.649Z,963.56
2019-01-15T03:56:44.164Z,963.54
2019-01-15T03:57:24.694Z,963.54
2019-01-15T03:58:05.230Z,963.51
2019-01-15T03:58:45.734Z,963.53
2019-01-15T03:59:26.261Z,963.51
2019-01-15T04:00:06.803Z,963.55
2019-01-15T04:00:47.327Z,963.54
2019-01-15T04:01:27.866Z,963.55
2019-01-15T04:02:08.398Z,963.55
2019-01-15T04:02:48.917Z,963.55
2019-01-15T04:03:29.450Z,963.59
2019-01-15T04:04:09.983Z,963.65
2019-01-15T04:04:50.507Z,963.59
2019-01-15T04:05:31.054Z,963.61
2019-01-15T04:06:11.598Z,963.62
2019-01-15T04:06:52.121Z,963.62
2019-01-15T04:07:32.658Z,963.66
2019-01-15T04:08:13.191Z,963.7
2019-01-15T04:08:53.711Z,963.71
2019-01-15T04:09:34.249Z,963.7
2019-01-15T04:10:14.786Z,963.73
2019-01-15T04:10:55.323Z,963.77
2019-01-15T04:11:35.850Z,963.75
2019-01-15T04:12:16.382Z,963.86
2019-01-15T04:12:56.930Z,963.89
2019-01-15T04:13:37.456Z,963.92
2019-01-15T04:14:18.000Z,963.89
2019-01-15T04:14:58.529Z,963.92
2019-01-15T04:15:39.051Z,963.93
2019-01-15T04:16:19.581Z,963.98
2019-01-15T04:17:00.111Z,963.99
2019-01-15T04:17:40.642Z,963.99
2019-01-15T04:18:21.179Z,963.99
2019-01-15T04:19:01.706Z,963.98
2019-01-15T04:19:42.238Z,964.04
2019-01-15T04:20:22.780Z,964.01
2019-01-15T04:21:03.319Z,964
2019-01-15T04:21:43.856Z,964.01
2019-01-15T04:22:24.395Z,964.01
2019-01-15T04:23:04.933Z,964.06
2019-01-15T04:23:45.462Z,964.03
2019-01-15T04:24:25.989Z,964.07
2019-01-15T04:25:06.530Z,964.09
2019-01-15T04:25:47.050Z,964.15
2019-01-15T04:26:27.599Z,964.11
2019-01-15T04:27:08.118Z,964.07
2019-01-15T04:27:48.657Z,964
2019-01-15T04:28:29.183Z,964.03
2019-01-15T04:29:09.704Z,964.06
2019-01-15T04:29:50.240Z,964.01
2019-01-15T04:30:30.770Z,964.04
2019-01-15T04:31:11.296Z,964.01
2019-01-15T04:31:51.833Z,964.04
2019-01-15T04:32:32.368Z,964.05
2019-01-15T04:33:12.898Z,964.11
2019-01-15T04:33:53.432Z,964.01
2019-01-15T04:34:33.972Z,963.99
2019-01-15T04:35:14.511Z,964.05
2019-01-15T04:35:55.025Z,964.04
2019-01-15T04:36:35.563Z,964.03
2019-01-15T04:37:16.088Z,964.07
2019-01-15T04:37:56.623Z,964.07
2019-01-15T04:38:37.162Z,964.09
2019-01-15T04:39:17.687Z,964.07
2019-01-15T04:39:58.219Z,964.06
2019-01-15T04:40:38.761Z,964.09
2019-01-15T04:41:19.307Z,964.1
2019-01-15T04:41:59.844Z,964.08
2019-01-15T04:42:40.366Z,964.09
2019-01-15T04:43:20.900Z,964.05
2019-01-15T04:44:01.437Z,964.07
2019-01-15T04:44:45.301Z,964.08
2019-01-15T04:45:26.628Z,964.06
2019-01-15T04:46:07.155Z,964.08
2019-01-15T04:46:47.684Z,964.09
2019-01-15T04:47:28.223Z,964.05
2019-01-15T04:48:08.767Z,964.04
2019-01-15T04:48:49.306Z,964.03
2019-01-15T04:49:29.840Z,964.03
2019-01-15T04:50:10.364Z,964.03
2019-01-15T04:50:50.883Z,964.04
2019-01-15T04:51:31.405Z,964.04
2019-01-15T04:52:11.936Z,964.04
2019-01-15T04:52:52.465Z,964.06
2019-01-15T04:53:32.986Z,964.09
2019-01-15T04:54:13.525Z,964.04
2019-01-15T04:54:54.055Z,964.03
2019-01-15T04:55:34.926Z,964.03
2019-01-15T04:56:15.451Z,963.98
2019-01-15T04:56:55.991Z,964.02
2019-01-15T04:57:36.527Z,964
2019-01-15T04:58:17.059Z,963.98
2019-01-15T04:58:57.604Z,963.97
2019-01-15T04:59:38.144Z,963.93
2019-01-15T05:00:18.682Z,963.94
2019-01-15T05:00:59.216Z,963.87
2019-01-15T05:01:39.755Z,963.89
2019-01-15T05:02:20.279Z,963.93
2019-01-15T05:03:00.875Z,964
2019-01-15T05:03:41.360Z,963.95
2019-01-15T05:04:21.891Z,964
2019-01-15T05:05:02.436Z,964.03
2019-01-15T05:05:42.961Z,964.03
2019-01-15T05:06:23.488Z,964.03
2019-01-15T05:07:04.011Z,964.02
2019-01-15T05:07:44.543Z,963.99
2019-01-15T05:08:25.082Z,964.02
2019-01-15T05:09:05.607Z,964.02
2019-01-15T05:09:46.135Z,964.04
2019-01-15T05:10:27.293Z,964.08
2019-01-15T05:11:10.291Z,964.03
2019-01-15T05:11:54.281Z,964.06
2019-01-15T05:12:37.436Z,964.16
2019-01-15T05:13:27.170Z,964.12
2019-01-15T05:14:05.288Z,964.16
2019-01-15T05:14:49.293Z,964.19
2019-01-15T05:15:30.721Z,964.18
2019-01-15T05:16:11.264Z,964.2
2019-01-15T05:16:51.783Z,964.19
2019-01-15T05:17:32.303Z,964.2
2019-01-15T05:18:12.848Z,964.25
2019-01-15T05:18:53.390Z,964.21
2019-01-15T05:19:33.930Z,964.3
2019-01-15T05:20:14.465Z,964.27
2019-01-15T05:20:54.999Z,964.34
2019-01-15T05:21:35.532Z,964.34
2019-01-15T05:22:16.067Z,964.32
2019-01-15T05:22:56.602Z,964.35
2019-01-15T05:23:37.145Z,964.32
2019-01-15T05:24:17.674Z,964.32
2019-01-15T05:24:58.209Z,964.34
2019-01-15T05:25:38.739Z,964.33
2019-01-15T05:26:19.265Z,964.35
2019-01-15T05:26:59.803Z,964.35
2019-01-15T05:27:40.334Z,964.35
2019-01-15T05:28:20.864Z,964.38
2019-01-15T05:29:01.397Z,964.39
2019-01-15T05:29:41.930Z,964.39
2019-01-15T05:30:22.444Z,964.36
2019-01-15T05:31:02.978Z,964.35
2019-01-15T05:31:43.510Z,964.42
2019-01-15T05:32:24.028Z,964.42
2019-01-15T05:33:04.565Z,964.4
2019-01-15T05:33:45.104Z,964.37
2019-01-15T05:34:25.640Z,964.36
2019-01-15T05:35:06.174Z,964.39
2019-01-15T05:35:46.702Z,964.37
2019-01-15T05:36:27.244Z,964.4
2019-01-15T05:37:07.774Z,964.47
2019-01-15T05:37:48.311Z,964.4
2019-01-15T05:38:28.838Z,964.4
2019-01-15T05:39:09.373Z,964.42
2019-01-15T05:39:49.910Z,964.46
2019-01-15T05:40:30.433Z,964.44
2019-01-15T05:41:10.958Z,964.45
2019-01-15T05:41:51.483Z,964.48
2019-01-15T05:42:32.012Z,964.5
2019-01-15T05:43:12.540Z,964.51
2019-01-15T05:43:53.070Z,964.54
2019-01-15T05:44:33.601Z,964.47
2019-01-15T05:45:14.130Z,964.53
2019-01-15T05:45:54.657Z,964.48
2019-01-15T05:46:35.188Z,964.51
2019-01-15T05:47:15.714Z,964.5
2019-01-15T05:47:56.242Z,964.49
2019-01-15T05:48:43.430Z,964.51
2019-01-15T05:49:23.963Z,964.47
2019-01-15T05:50:04.493Z,964.48
2019-01-15T05:50:45.025Z,964.49
2019-01-15T05:51:25.563Z,964.47
2019-01-15T05:52:06.082Z,964.48
2019-01-15T05:52:46.614Z,964.47
2019-01-15T05:53:27.135Z,964.43
2019-01-15T05:54:07.660Z,964.43
2019-01-15T05:54:48.187Z,964.41
2019-01-15T05:55:28.725Z,964.4
2019-01-15T05:56:09.549Z,964.4
2019-01-15T05:56:49.771Z,964.39
2019-01-15T05:57:30.294Z,964.39
2019-01-15T05:58:10.818Z,964.4
2019-01-15T05:59:05.929Z,964.41
2019-01-15T06:02:24.882Z,964.42
2019-01-15T06:03:05.407Z,964.37
2019-01-15T06:03:45.932Z,964.37
2019-01-15T06:04:26.452Z,964.36
2019-01-15T06:05:06.972Z,964.36
2019-01-15T06:05:47.501Z,964.37
2019-01-15T06:06:28.022Z,964.4
2019-01-15T06:07:08.546Z,964.38
2019-01-15T06:07:49.069Z,964.42
2019-01-15T06:08:29.603Z,964.41
2019-01-15T06:09:10.147Z,964.46
2019-01-15T06:09:50.674Z,964.46
2019-01-15T06:10:31.211Z,964.47
2019-01-15T06:11:11.738Z,964.46
2019-01-15T06:11:52.326Z,964.44
2019-01-15T06:12:32.808Z,964.48
2019-01-15T06:13:13.326Z,964.42
2019-01-15T06:13:53.856Z,964.48
2019-01-15T06:14:34.382Z,964.43
2019-01-15T06:15:14.927Z,964.45
2019-01-15T06:15:55.462Z,964.49
2019-01-15T06:16:37.510Z,964.44
2019-01-15T06:17:16.526Z,964.48
2019-01-15T06:17:57.057Z,964.48
2019-01-15T06:18:37.596Z,964.45
2019-01-15T06:19:18.128Z,964.49
2019-01-15T06:19:58.656Z,964.48
2019-01-15T06:20:39.189Z,964.47
2019-01-15T06:21:19.719Z,964.49
2019-01-15T06:22:00.250Z,964.54
2019-01-15T06:22:40.781Z,964.52
2019-01-15T06:23:21.308Z,964.52
2019-01-15T06:24:01.840Z,964.51
2019-01-15T06:24:42.367Z,964.54
2019-01-15T06:25:22.919Z,964.54
2019-01-15T06:26:03.441Z,964.56
2019-01-15T06:26:43.986Z,964.5
2019-01-15T06:27:24.513Z,964.54
2019-01-15T06:28:05.043Z,964.45
2019-01-15T06:28:45.592Z,964.46
2019-01-15T06:29:26.164Z,964.53
2019-01-15T06:30:06.648Z,964.52
2019-01-15T06:30:47.174Z,964.5
2019-01-15T06:31:27.699Z,964.46
2019-01-15T06:32:08.238Z,964.5
2019-01-15T06:32:48.760Z,964.48
2019-01-15T06:33:29.292Z,964.49
2019-01-15T06:34:09.814Z,964.46
2019-01-15T06:34:50.340Z,964.47
2019-01-15T06:35:30.877Z,964.44
2019-01-15T06:36:11.399Z,964.45
2019-01-15T06:36:51.935Z,964.45
2019-01-15T06:37:32.468Z,964.41
2019-01-15T06:38:12.998Z,964.46
2019-01-15T06:38:53.519Z,964.43
2019-01-15T06:39:34.045Z,964.48
2019-01-15T06:40:14.581Z,964.49
2019-01-15T06:40:55.107Z,964.44
2019-01-15T06:41:35.658Z,964.46
2019-01-15T06:42:16.194Z,964.48
2019-01-15T06:42:56.720Z,964.42
2019-01-15T06:43:37.250Z,964.43
2019-01-15T06:44:17.789Z,964.46
2019-01-15T06:44:58.314Z,964.45
2019-01-15T06:45:38.844Z,964.48
2019-01-15T06:46:19.379Z,964.46
2019-01-15T06:46:59.903Z,964.48
2019-01-15T06:47:40.432Z,964.5
2019-01-15T06:48:20.960Z,964.47
2019-01-15T06:49:01.502Z,964.46
2019-01-15T06:49:42.041Z,964.48
2019-01-15T06:50:22.569Z,964.45
2019-01-15T06:51:03.096Z,964.48
2019-01-15T06:51:43.626Z,964.49
2019-01-15T06:52:24.162Z,964.47
2019-01-15T06:53:04.700Z,964.45
2019-01-15T06:53:45.244Z,964.46
2019-01-15T06:54:25.774Z,964.4
2019-01-15T06:55:06.301Z,964.41
2019-01-15T06:55:46.834Z,964.4
2019-01-15T06:56:27.358Z,964.39
2019-01-15T06:57:07.888Z,964.42
2019-01-15T06:57:48.418Z,964.41
2019-01-15T06:58:28.952Z,964.44
2019-01-15T06:59:09.480Z,964.45
2019-01-15T06:59:50.017Z,964.45
2019-01-15T07:00:30.539Z,964.42
2019-01-15T07:01:11.057Z,964.45
2019-01-15T07:01:51.583Z,964.49
2019-01-15T07:02:32.158Z,964.48
2019-01-15T07:03:12.652Z,964.51
2019-01-15T07:03:53.191Z,964.54
2019-01-15T07:04:33.718Z,964.56
2019-01-15T07:05:14.349Z,964.57
2019-01-15T07:05:54.770Z,964.57
2019-01-15T07:06:35.309Z,964.57
2019-01-15T07:07:15.834Z,964.58
2019-01-15T07:07:56.362Z,964.64
2019-01-15T07:08:36.900Z,964.64
2019-01-15T07:09:17.423Z,964.65
2019-01-15T07:09:57.960Z,964.71
2019-01-15T07:10:38.482Z,964.72
2019-01-15T07:11:19.010Z,964.73
2019-01-15T07:11:59.552Z,964.66
2019-01-15T07:12:40.092Z,964.67
2019-01-15T07:13:20.613Z,964.71
2019-01-15T07:14:01.140Z,964.78
2019-01-15T07:14:41.664Z,964.78
2019-01-15T07:15:22.197Z,964.82
2019-01-15T07:16:02.725Z,964.83
2019-01-15T07:16:43.252Z,964.81
2019-01-15T07:17:23.784Z,964.78
2019-01-15T07:18:04.312Z,964.75
2019-01-15T07:18:44.853Z,964.72
2019-01-15T07:19:25.390Z,964.79
2019-01-15T07:20:05.918Z,964.74
2019-01-15T07:20:46.456Z,964.82
2019-01-15T07:21:26.984Z,964.9
2019-01-15T07:22:07.520Z,964.89
2019-01-15T07:22:48.047Z,964.87
2019-01-15T07:23:28.587Z,964.91
2019-01-15T07:26:22.253Z,964.9
2019-01-15T07:27:02.781Z,964.87
2019-01-15T07:27:43.323Z,964.9
2019-01-15T07:28:23.854Z,964.86
2019-01-15T07:29:04.402Z,964.91
2019-01-15T07:29:44.932Z,964.91
2019-01-15T07:30:25.460Z,964.93
2019-01-15T07:31:05.990Z,964.89
2019-01-15T07:31:46.521Z,964.91
2019-01-15T07:32:27.061Z,964.9
2019-01-15T07:33:07.598Z,964.94
2019-01-15T07:33:48.116Z,964.95
2019-01-15T07:34:28.666Z,964.94
2019-01-15T07:35:09.188Z,964.95
2019-01-15T07:35:49.717Z,964.98
2019-01-15T07:36:30.239Z,964.93
2019-01-15T07:37:10.764Z,964.98
2019-01-15T07:37:51.307Z,965
2019-01-15T07:38:31.829Z,965.02
2019-01-15T07:39:12.359Z,965.02
2019-01-15T07:39:52.951Z,965.01
2019-01-15T07:40:33.429Z,965.03
2019-01-15T07:41:13.954Z,965.03
2019-01-15T07:41:54.482Z,965.02
2019-01-15T07:42:35.007Z,965.01
2019-01-15T07:43:15.544Z,965.06
2019-01-15T07:43:56.077Z,965.04
2019-01-15T07:44:36.614Z,965.13
2019-01-15T07:45:17.144Z,965.07
2019-01-15T07:45:57.671Z,965.05
2019-01-15T07:46:38.188Z,965.03
2019-01-15T07:47:18.733Z,965.07
2019-01-15T07:47:59.273Z,965.05
2019-01-15T07:48:39.813Z,965.02
2019-01-15T07:49:20.341Z,965.04
2019-01-15T07:50:00.878Z,964.99
2019-01-15T07:50:41.406Z,964.99
2019-01-15T07:51:21.937Z,964.99
2019-01-15T07:52:02.474Z,965
2019-01-15T07:52:43.020Z,964.99
2019-01-15T07:53:23.545Z,965
2019-01-15T07:54:04.069Z,964.99
2019-01-15T07:54:44.607Z,965
2019-01-15T07:55:25.143Z,964.95
2019-01-15T07:56:05.683Z,964.94
2019-01-15T07:56:46.210Z,964.92
2019-01-15T07:57:26.733Z,964.96
2019-01-15T07:58:07.262Z,964.94
2019-01-15T07:58:47.796Z,964.92
2019-01-15T07:59:28.317Z,964.93
2019-01-15T08:00:08.848Z,964.97
2019-01-15T08:00:49.378Z,964.98
2019-01-15T08:01:29.897Z,964.96
2019-01-15T08:02:10.443Z,964.94
2019-01-15T08:02:50.971Z,964.95
2019-01-15T08:03:31.512Z,964.96
2019-01-15T08:04:12.043Z,964.95
2019-01-15T08:04:52.580Z,964.94
2019-01-15T08:05:33.117Z,964.93
2019-01-15T08:06:13.654Z,964.96
2019-01-15T08:06:54.193Z,964.93
2019-01-15T08:07:34.713Z,964.95
2019-01-15T08:08:15.250Z,964.99
2019-01-15T08:08:55.788Z,964.98
2019-01-15T08:09:36.312Z,965
2019-01-15T08:10:16.844Z,964.96
2019-01-15T08:10:57.388Z,965
2019-01-15T08:11:37.912Z,964.98
2019-01-15T08:12:18.433Z,964.96
2019-01-15T08:12:58.973Z,964.95
2019-01-15T08:13:39.512Z,964.98
2019-01-15T08:14:20.039Z,965.01
2019-01-15T08:15:00.589Z,965.07
2019-01-15T08:15:41.106Z,965.06
2019-01-15T08:16:21.635Z,965.05
2019-01-15T08:17:02.164Z,965.05
2019-01-15T08:17:42.703Z,965.05
2019-01-15T08:18:23.236Z,965.06
2019-01-15T08:19:03.774Z,965
2019-01-15T08:19:44.309Z,964.99
2019-01-15T08:20:24.848Z,965.04
2019-01-15T08:21:05.370Z,965.03
2019-01-15T08:21:45.904Z,965.02
2019-01-15T08:22:26.429Z,965.01
2019-01-15T08:25:40.304Z,965.05
2019-01-15T08:26:20.823Z,965.04
2019-01-15T08:27:01.351Z,965
2019-01-15T08:27:41.891Z,965.01
2019-01-15T08:28:22.414Z,965.03
2019-01-15T08:29:02.944Z,965.03
2019-01-15T08:29:43.477Z,965.05
2019-01-15T08:30:23.999Z,965.04
2019-01-15T08:31:04.533Z,965.07
2019-01-15T08:31:45.066Z,965.08
2019-01-15T08:32:25.604Z,965.08
2019-01-15T08:35:19.262Z,965.13
2019-01-15T08:35:59.789Z,965.12
2019-01-15T08:36:40.316Z,965.1
2019-01-15T08:37:20.843Z,965.11
2019-01-15T08:38:01.384Z,965.15
2019-01-15T08:38:41.901Z,965.18
2019-01-15T08:39:22.429Z,965.18
2019-01-15T08:40:02.975Z,965.17
2019-01-15T08:40:43.498Z,965.2
2019-01-15T08:41:24.037Z,965.2
2019-01-15T08:42:04.566Z,965.2
2019-01-15T08:42:45.096Z,965.17
2019-01-15T08:43:25.625Z,965.16